Terminal Aerodrome Forecast
Issued by NWS

Home | Current Version | Previous Version | Text Only | Print | Product List | Glossary On
Versions: 1 2 3 4 5 6 7 8 9 10 11 12 13 14 15 16
000
FTUS41 KPHI 271517 AAC
TAFPNE
TAF AMD
KPNE 271517Z 2715/2812 22010G19KT P6SM SCT018
      TEMPO 2715/2716 BKN018
     FM271900 21013G21KT P6SM BKN045
      TEMPO 2723/2801 -TSRA OVC035CB
     FM280100 21007KT P6SM BKN120
     FM280900 20003KT 6SM BR SCT015=

USA.gov is the U.S. government's official web portal to all federal, state and local government web resources and services.